createdAt,value
2022-09-23T00:02:10.945Z,12.18
2022-09-23T00:04:39.183Z,11.34
2022-09-23T00:07:07.485Z,10.71
2022-09-23T00:09:35.603Z,10.22
2022-09-23T00:12:08.661Z,10.10
2022-09-23T00:14:39.161Z,11.23
2022-09-23T00:17:07.407Z,12.49
2022-09-23T00:19:37.988Z,13.08
2022-09-23T00:22:07.379Z,12.34
2022-09-23T00:24:35.458Z,11.43
2022-09-23T00:27:03.938Z,10.72
2022-09-23T00:29:33.173Z,10.18
2022-09-23T00:32:01.517Z,9.76
2022-09-23T00:34:29.900Z,9.38
2022-09-23T00:36:57.967Z,9.33
2022-09-23T00:39:29.067Z,10.26
2022-09-23T00:41:57.195Z,11.05
2022-09-23T00:44:45.440Z,12.02
2022-09-23T00:47:21.092Z,13.17
2022-09-23T00:50:01.975Z,13.26
2022-09-23T00:52:32.299Z,12.20
2022-09-23T00:55:02.896Z,11.30
2022-09-23T00:57:35.204Z,10.62
2022-09-23T01:00:06.038Z,10.11
2022-09-23T01:02:34.718Z,9.67
2022-09-23T01:05:06.088Z,9.58
2022-09-23T01:07:34.949Z,10.87
2022-09-23T01:10:04.387Z,12.33
2022-09-23T01:12:37.968Z,12.87
2022-09-23T01:15:15.317Z,12.06
2022-09-23T01:18:00.249Z,11.12
2022-09-23T01:20:59.513Z,10.37
2022-09-23T01:24:06.046Z,9.78
2022-09-23T01:26:56.674Z,9.26
2022-09-23T01:29:49.800Z,8.86
2022-09-23T01:32:28.273Z,8.97
2022-09-23T01:35:14.923Z,10.56
2022-09-23T01:37:48.825Z,12.00
2022-09-23T01:40:51.449Z,12.41
2022-09-23T01:43:41.711Z,11.37
2022-09-23T01:46:18.123Z,10.45
2022-09-23T01:49:01.243Z,9.82
2022-09-23T01:51:37.790Z,9.33
2022-09-23T01:54:20.912Z,8.93
2022-09-23T01:57:05.738Z,8.96
2022-09-23T01:59:49.632Z,10.48
2022-09-23T02:02:33.710Z,11.97
2022-09-23T02:05:14.556Z,12.48
2022-09-23T02:08:01.475Z,11.53
2022-09-23T02:10:53.593Z,10.56
2022-09-23T02:13:47.693Z,9.84
2022-09-23T02:16:25.643Z,9.75
2022-09-23T02:18:58.494Z,11.09
2022-09-23T02:21:34.141Z,12.39
2022-09-23T02:24:29.656Z,12.87
2022-09-23T02:27:13.254Z,11.82
2022-09-23T02:30:27.286Z,10.85
2022-09-23T02:33:35.396Z,10.02
2022-09-23T02:36:22.386Z,9.43
2022-09-23T02:38:58.446Z,9.00
2022-09-23T02:41:56.384Z,9.06
2022-09-23T02:44:28.490Z,10.75
2022-09-23T02:46:56.980Z,11.98
2022-09-23T02:49:28.225Z,12.40
2022-09-23T02:52:00.189Z,11.59
2022-09-23T02:54:29.488Z,10.68
2022-09-23T02:57:01.279Z,10.00
2022-09-23T02:59:30.750Z,9.47
2022-09-23T03:02:17.512Z,9.03
2022-09-23T03:05:01.627Z,8.62
2022-09-23T03:08:04.406Z,8.73
2022-09-23T03:10:46.597Z,10.38
2022-09-23T03:13:29.557Z,11.44
2022-09-23T03:16:18.776Z,11.74
2022-09-23T03:18:58.048Z,10.86
2022-09-23T03:21:36.563Z,10.02
2022-09-23T03:24:09.391Z,9.38
2022-09-23T03:26:40.436Z,8.91
2022-09-23T03:29:11.442Z,8.54
2022-09-23T03:31:42.493Z,8.47
2022-09-23T03:34:20.286Z,9.59
2022-09-23T03:37:02.899Z,10.76
2022-09-23T03:39:42.138Z,11.20
2022-09-23T03:42:25.535Z,10.43
2022-09-23T03:44:57.633Z,9.57
2022-09-23T03:47:28.581Z,9.00
2022-09-23T03:49:59.827Z,8.55
2022-09-23T03:52:28.627Z,8.49
2022-09-23T03:54:57.936Z,9.78
2022-09-23T03:57:26.205Z,11.15
2022-09-23T03:59:54.305Z,11.72
2022-09-23T04:02:22.531Z,10.99
2022-09-23T04:04:50.877Z,10.09
2022-09-23T04:07:19.526Z,9.41
2022-09-23T04:09:48.006Z,8.89
2022-09-23T04:12:17.003Z,8.49
2022-09-23T04:14:45.897Z,8.47
2022-09-23T04:17:14.376Z,9.88
2022-09-23T04:19:42.566Z,11.30
2022-09-23T04:22:11.550Z,11.85
2022-09-23T04:24:40.143Z,11.05
2022-09-23T04:27:08.422Z,10.12
2022-09-23T04:29:37.105Z,9.40
2022-09-23T04:32:05.393Z,8.86
2022-09-23T04:34:34.101Z,8.42
2022-09-23T04:37:04.204Z,8.04
2022-09-23T04:39:32.383Z,8.01
2022-09-23T04:42:00.559Z,9.37
2022-09-23T04:44:30.978Z,10.83
2022-09-23T04:46:59.477Z,11.46
2022-09-23T04:49:27.624Z,10.69
2022-09-23T04:51:56.549Z,9.79
2022-09-23T04:54:24.924Z,9.09
2022-09-23T04:56:55.762Z,8.57
2022-09-23T04:59:25.174Z,8.16
2022-09-23T05:01:54.683Z,8.14
2022-09-23T05:04:23.054Z,9.44
2022-09-23T05:06:51.225Z,10.82
2022-09-23T05:09:19.607Z,11.44
2022-09-23T05:11:47.793Z,10.73
2022-09-23T05:14:19.084Z,9.85
2022-09-23T05:16:50.543Z,9.15
2022-09-23T05:19:19.307Z,8.65
2022-09-23T05:21:52.347Z,8.55
2022-09-23T05:24:21.791Z,9.73
2022-09-23T05:26:49.894Z,11.03
2022-09-23T05:29:18.239Z,12.00
2022-09-23T05:31:46.754Z,12.40
2022-09-23T05:34:14.997Z,11.59
2022-09-23T05:36:43.514Z,10.71
2022-09-23T05:39:11.654Z,10.07
2022-09-23T05:41:41.678Z,9.59
2022-09-23T05:44:11.599Z,9.20
2022-09-23T05:46:40.327Z,9.16
2022-09-23T05:49:08.928Z,10.29
2022-09-23T05:51:38.304Z,11.56
2022-09-23T05:54:08.862Z,12.33
2022-09-23T05:56:38.223Z,12.51
2022-09-23T05:59:07.060Z,11.78
2022-09-23T06:01:36.958Z,11.03
2022-09-23T06:04:06.859Z,10.49
2022-09-23T06:06:39.128Z,10.37
2022-09-23T06:09:13.655Z,11.60
2022-09-23T06:11:42.315Z,12.95
2022-09-23T06:16:57.631Z,12.78
2022-09-23T06:19:29.210Z,12.06
2022-09-23T06:22:01.269Z,11.53
2022-09-23T06:24:31.536Z,11.16
2022-09-23T06:27:01.983Z,11.11
2022-09-23T06:29:32.446Z,12.09
2022-09-23T06:32:01.308Z,13.17
2022-09-23T06:34:41.117Z,13.74
2022-09-23T06:37:20.216Z,13.97
2022-09-23T06:39:49.427Z,13.38
2022-09-23T06:42:18.099Z,12.74
2022-09-23T06:44:49.366Z,12.25
2022-09-23T06:47:18.043Z,11.90
2022-09-23T06:49:46.747Z,11.93
2022-09-23T06:52:16.165Z,13.18
2022-09-23T06:54:45.362Z,14.34
2022-09-23T06:57:14.645Z,15.19
2022-09-23T06:59:43.030Z,15.62
2022-09-23T07:02:12.543Z,15.02
2022-09-23T07:04:42.754Z,14.33
2022-09-23T07:07:11.782Z,13.82
2022-09-23T07:09:40.559Z,13.46
2022-09-23T07:12:08.932Z,13.20
2022-09-23T07:14:40.182Z,12.99
2022-09-23T07:17:08.865Z,13.10
2022-09-23T07:19:38.106Z,14.30
2022-09-23T07:22:06.965Z,15.27
2022-09-23T07:24:35.249Z,15.02
2022-09-23T07:27:06.652Z,14.53
2022-09-23T07:29:47.036Z,14.19
2022-09-23T07:32:22.288Z,13.97
2022-09-23T07:34:52.255Z,13.82
2022-09-23T07:37:22.182Z,13.73
2022-09-23T07:39:51.985Z,13.68
2022-09-23T07:42:21.064Z,13.64
2022-09-23T07:44:54.052Z,13.61
2022-09-23T07:47:23.876Z,13.84
2022-09-23T07:49:54.950Z,15.04
2022-09-23T07:52:24.948Z,16.20
2022-09-23T07:54:54.640Z,16.88
2022-09-23T07:57:24.686Z,16.54
2022-09-23T07:59:53.717Z,16.04
2022-09-23T08:02:22.276Z,15.69
2022-09-23T08:04:50.926Z,15.45
2022-09-23T08:07:19.819Z,15.31
2022-09-23T08:09:49.153Z,15.21
2022-09-23T08:12:20.267Z,15.13
2022-09-23T08:14:51.459Z,15.08
2022-09-23T08:17:20.794Z,15.14
2022-09-23T08:19:50.282Z,16.12
2022-09-23T08:22:20.449Z,16.99
2022-09-23T08:24:49.737Z,16.85
2022-09-23T08:27:19.757Z,16.52
2022-09-23T08:29:50.212Z,16.29
2022-09-23T08:32:18.837Z,16.16
2022-09-23T08:34:47.844Z,16.07
2022-09-23T08:37:18.332Z,16.05
2022-09-23T08:39:48.430Z,16.06
2022-09-23T08:42:30.240Z,16.08
2022-09-23T08:45:03.884Z,16.11
2022-09-23T08:47:35.601Z,16.14
2022-09-23T08:50:07.674Z,16.17
2022-09-23T08:52:50.483Z,16.20
2022-09-23T08:55:24.716Z,16.21
2022-09-23T08:58:26.210Z,16.21
2022-09-23T09:01:04.750Z,16.24
2022-09-23T09:03:57.964Z,16.27
2022-09-23T09:06:36.224Z,16.35
2022-09-23T09:09:23.932Z,16.40
2022-09-23T09:12:00.582Z,16.45
2022-09-23T09:15:07.813Z,16.50
2022-09-23T09:18:03.356Z,16.57
2022-09-23T09:20:55.229Z,16.61
2022-09-23T09:23:28.730Z,16.66
2022-09-23T09:26:01.954Z,16.69
2022-09-23T09:28:36.147Z,16.74
2022-09-23T09:31:07.762Z,16.78
2022-09-23T09:34:03.640Z,16.85
2022-09-23T09:36:36.533Z,16.92
2022-09-23T09:39:05.429Z,17.00
2022-09-23T09:41:34.113Z,17.08
2022-09-23T09:44:09.791Z,17.18
2022-09-23T09:46:55.571Z,17.27
2022-09-23T09:49:28.868Z,17.32
2022-09-23T09:52:23.647Z,17.34
2022-09-23T09:54:56.313Z,17.35
2022-09-23T09:57:35.389Z,17.35
2022-09-23T10:00:44.888Z,17.40
2022-09-23T10:03:13.536Z,17.49
2022-09-23T10:05:49.698Z,17.53
2022-09-23T10:08:36.001Z,17.60
2022-09-23T10:11:16.363Z,17.68
2022-09-23T10:14:06.968Z,17.72
2022-09-23T10:16:35.448Z,17.78
2022-09-23T10:19:11.718Z,17.84
2022-09-23T10:21:42.481Z,17.88
2022-09-23T10:24:23.039Z,17.93
2022-09-23T10:26:58.369Z,17.93
2022-09-23T10:29:40.117Z,17.94
2022-09-23T10:32:26.780Z,17.97
2022-09-23T10:35:09.090Z,18.02
2022-09-23T10:37:46.065Z,18.09
2022-09-23T10:40:48.563Z,18.17
2022-09-23T10:43:41.641Z,18.20
2022-09-23T10:46:38.599Z,18.23
2022-09-23T10:49:09.417Z,18.26
2022-09-23T10:52:00.728Z,18.29
2022-09-23T10:54:47.443Z,18.33
2022-09-23T10:57:40.101Z,18.36
2022-09-23T11:00:23.675Z,18.41
2022-09-23T11:03:23.008Z,18.52
2022-09-23T11:06:07.933Z,18.66
2022-09-23T11:09:04.334Z,18.75
2022-09-23T11:11:52.960Z,18.72
2022-09-23T11:14:23.965Z,18.65
2022-09-23T11:17:06.009Z,18.54
2022-09-23T11:20:00.577Z,18.38
2022-09-23T11:22:37.914Z,18.35
2022-09-23T11:25:17.981Z,18.36
2022-09-23T11:27:52.991Z,18.38
2022-09-23T11:30:22.753Z,18.42
2022-09-23T11:32:57.476Z,18.45
2022-09-23T11:35:37.178Z,18.47
2022-09-23T11:38:11.963Z,18.43
2022-09-23T11:40:46.840Z,18.39
2022-09-23T11:43:24.408Z,18.42
2022-09-23T11:45:59.018Z,18.50
2022-09-23T11:48:35.012Z,18.61
2022-09-23T11:51:12.800Z,18.70
2022-09-23T11:53:47.148Z,18.74
2022-09-23T11:56:35.431Z,18.80
2022-09-23T11:59:40.276Z,18.87
2022-09-23T12:02:31.240Z,18.91
2022-09-23T12:05:11.269Z,18.95
2022-09-23T12:07:54.926Z,18.95
2022-09-23T12:10:38.500Z,18.96
2022-09-23T12:13:30.408Z,18.96
2022-09-23T12:16:23.652Z,18.97
2022-09-23T12:19:14.973Z,19.00
2022-09-23T12:21:51.586Z,19.05
2022-09-23T12:24:45.068Z,19.06
2022-09-23T12:27:45.997Z,19.07
2022-09-23T12:30:17.600Z,19.09
2022-09-23T12:32:47.065Z,19.08
2022-09-23T12:35:26.980Z,19.08
2022-09-23T12:37:56.412Z,19.01
2022-09-23T12:40:35.059Z,18.96
2022-09-23T12:43:03.726Z,18.93
2022-09-23T12:45:32.913Z,18.84
2022-09-23T12:48:06.023Z,18.80
2022-09-23T12:51:03.179Z,18.81
2022-09-23T12:53:34.536Z,18.88
2022-09-23T12:56:16.815Z,18.91
2022-09-23T12:58:45.121Z,18.93
2022-09-23T13:01:21.519Z,18.93
2022-09-23T13:04:10.812Z,18.94
2022-09-23T13:06:53.678Z,18.93
2022-09-23T13:09:29.121Z,18.94
2022-09-23T13:12:13.485Z,18.93
2022-09-23T13:14:47.031Z,18.94
2022-09-23T13:17:31.252Z,18.94
2022-09-23T13:20:25.634Z,18.90
2022-09-23T13:22:54.039Z,18.89
2022-09-23T13:25:24.444Z,18.88
2022-09-23T13:28:00.603Z,18.87
2022-09-23T13:30:30.007Z,18.88
2022-09-23T13:33:19.272Z,18.88
2022-09-23T13:35:53.413Z,18.90
2022-09-23T13:38:26.339Z,18.89
2022-09-23T13:40:59.469Z,18.85
2022-09-23T13:43:40.838Z,18.82
2022-09-23T13:46:18.548Z,18.84
2022-09-23T13:48:50.755Z,18.86
2022-09-23T13:51:33.467Z,18.79
2022-09-23T13:54:04.631Z,18.69
2022-09-23T13:56:35.443Z,18.64
2022-09-23T13:59:41.764Z,18.62
2022-09-23T14:02:17.009Z,18.59
2022-09-23T14:04:46.476Z,18.55
2022-09-23T14:07:17.014Z,18.54
2022-09-23T14:09:48.662Z,18.54
2022-09-23T14:12:22.704Z,18.53
2022-09-23T14:14:52.698Z,18.51
2022-09-23T14:17:25.372Z,18.50
2022-09-23T14:19:54.590Z,18.48
2022-09-23T14:22:27.777Z,18.45
2022-09-23T14:24:57.701Z,18.45
2022-09-23T14:27:32.480Z,18.44
2022-09-23T14:30:03.067Z,18.44
2022-09-23T14:32:33.267Z,18.44
2022-09-23T14:35:04.649Z,18.43
2022-09-23T14:37:56.170Z,18.40
2022-09-23T14:40:52.300Z,18.36
2022-09-23T14:43:25.287Z,18.29
2022-09-23T14:45:58.872Z,18.22
2022-09-23T14:48:32.500Z,18.14
2022-09-23T14:51:13.241Z,18.05
2022-09-23T14:53:46.606Z,17.99
2022-09-23T14:56:23.171Z,17.94
2022-09-23T14:59:00.128Z,17.87
2022-09-23T15:01:41.863Z,17.79
2022-09-23T15:04:31.100Z,17.72
2022-09-23T15:07:17.190Z,17.65
2022-09-23T15:09:45.990Z,17.57
2022-09-23T15:12:14.268Z,17.50
2022-09-23T15:14:51.367Z,17.44
2022-09-23T15:17:32.811Z,17.37
2022-09-23T15:20:18.119Z,17.31
2022-09-23T15:22:49.679Z,17.23
2022-09-23T15:25:28.409Z,17.17
2022-09-23T15:28:00.267Z,17.12
2022-09-23T15:30:29.582Z,17.07
2022-09-23T15:32:58.464Z,17.01
2022-09-23T15:35:28.518Z,16.96
2022-09-23T15:38:00.673Z,16.91
2022-09-23T15:40:32.731Z,16.86
2022-09-23T15:43:11.171Z,16.80
2022-09-23T15:45:44.893Z,16.74
2022-09-23T15:48:19.598Z,16.69
2022-09-23T15:50:49.710Z,16.64
2022-09-23T15:53:24.235Z,16.57
2022-09-23T15:55:52.924Z,16.52
2022-09-23T15:58:22.556Z,16.46
2022-09-23T16:00:56.197Z,16.40
2022-09-23T16:03:28.865Z,16.33
2022-09-23T16:06:03.467Z,16.26
2022-09-23T16:08:33.339Z,16.19
2022-09-23T16:11:01.854Z,16.12
2022-09-23T16:13:30.177Z,16.06
2022-09-23T16:15:58.615Z,15.98
2022-09-23T16:18:26.888Z,15.91
2022-09-23T16:20:55.375Z,15.83
2022-09-23T16:23:35.792Z,15.76
2022-09-23T16:26:22.165Z,15.69
2022-09-23T16:28:53.827Z,15.63
2022-09-23T16:31:25.752Z,15.56
2022-09-23T16:33:54.264Z,15.49
2022-09-23T16:36:29.022Z,15.43
2022-09-23T16:38:59.413Z,15.36
2022-09-23T16:41:32.105Z,15.31
2022-09-23T16:44:04.668Z,15.25
2022-09-23T16:46:34.599Z,15.19
2022-09-23T16:49:04.253Z,15.12
2022-09-23T16:51:38.861Z,15.05
2022-09-23T16:54:12.444Z,14.99
2022-09-23T16:56:47.158Z,14.92
2022-09-23T16:59:17.132Z,15.06
2022-09-23T17:02:04.401Z,15.92
2022-09-23T17:04:33.117Z,16.85
2022-09-23T17:07:04.250Z,17.67
2022-09-23T17:09:32.394Z,17.98
2022-09-23T17:12:13.916Z,17.50
2022-09-23T17:14:44.315Z,16.86
2022-09-23T17:17:14.369Z,16.38
2022-09-23T17:19:43.271Z,16.00
2022-09-23T17:22:12.088Z,15.70
2022-09-23T17:24:41.175Z,15.45
2022-09-23T17:27:09.958Z,15.24
2022-09-23T17:29:39.088Z,15.05
2022-09-23T17:32:09.701Z,14.88
2022-09-23T17:34:38.176Z,14.71
2022-09-23T17:37:06.656Z,14.56
2022-09-23T17:39:35.135Z,14.42
2022-09-23T17:42:03.717Z,14.27
2022-09-23T17:44:33.539Z,14.33
2022-09-23T17:47:06.374Z,15.11
2022-09-23T17:49:35.534Z,15.71
2022-09-23T17:52:05.857Z,16.23
2022-09-23T17:54:36.581Z,16.74
2022-09-23T17:57:05.072Z,16.99
2022-09-23T17:59:33.562Z,16.50
2022-09-23T18:02:02.210Z,15.88
2022-09-23T18:04:31.246Z,15.41
2022-09-23T18:06:59.738Z,15.03
2022-09-23T18:09:30.649Z,14.73
2022-09-23T18:11:59.471Z,14.48
2022-09-23T18:14:29.177Z,14.23
2022-09-23T18:16:58.408Z,14.00
2022-09-23T18:19:29.570Z,13.80
2022-09-23T18:22:01.799Z,13.61
2022-09-23T18:24:33.801Z,13.64
2022-09-23T18:27:06.570Z,14.59
2022-09-23T18:29:36.089Z,15.65
2022-09-23T18:32:06.047Z,16.34
2022-09-23T18:34:38.778Z,16.63
2022-09-23T18:37:15.745Z,16.00
2022-09-23T18:39:50.353Z,15.26
2022-09-23T18:42:24.881Z,14.72
2022-09-23T18:44:58.483Z,14.31
2022-09-23T18:47:51.753Z,13.97
2022-09-23T18:50:42.776Z,13.67
2022-09-23T18:53:15.528Z,13.40
2022-09-23T18:55:51.378Z,13.17
2022-09-23T18:58:22.677Z,13.17
2022-09-23T19:00:52.320Z,14.18
2022-09-23T19:03:26.111Z,15.31
2022-09-23T19:06:10.931Z,15.84
2022-09-23T19:08:45.774Z,15.22
2022-09-23T19:11:16.458Z,14.52
2022-09-23T19:13:46.454Z,14.00
2022-09-23T19:16:16.827Z,13.62
2022-09-23T19:18:49.491Z,13.31
2022-09-23T19:21:21.646Z,13.04
2022-09-23T19:23:57.115Z,13.07
2022-09-23T19:26:33.163Z,14.20
2022-09-23T19:29:13.984Z,15.38
2022-09-23T19:31:44.097Z,15.62
2022-09-23T19:34:15.593Z,14.97
2022-09-23T19:36:46.201Z,14.27
2022-09-23T19:39:21.435Z,13.74
2022-09-23T19:41:56.522Z,13.32
2022-09-23T19:44:30.199Z,12.99
2022-09-23T19:47:02.122Z,12.70
2022-09-23T19:49:32.826Z,12.63
2022-09-23T19:52:04.279Z,13.49
2022-09-23T19:54:39.210Z,14.74
2022-09-23T19:57:10.411Z,15.30
2022-09-23T19:59:45.863Z,14.75
2022-09-23T20:02:19.409Z,13.98
2022-09-23T20:04:48.714Z,13.42
2022-09-23T20:07:21.418Z,12.98
2022-09-23T20:09:53.313Z,12.64
2022-09-23T20:12:28.900Z,12.60
2022-09-23T20:15:02.677Z,13.79
2022-09-23T20:17:33.064Z,14.92
2022-09-23T20:20:02.923Z,15.36
2022-09-23T20:22:35.985Z,14.70
2022-09-23T20:25:13.791Z,13.93
2022-09-23T20:27:53.618Z,13.32
2022-09-23T20:30:24.103Z,12.84
2022-09-23T20:32:59.134Z,12.46
2022-09-23T20:35:34.498Z,12.14
2022-09-23T20:38:08.248Z,12.18
2022-09-23T20:40:42.298Z,13.45
2022-09-23T20:43:16.687Z,14.61
2022-09-23T20:45:55.110Z,15.11
2022-09-23T20:48:26.287Z,14.37
2022-09-23T20:51:03.708Z,13.57
2022-09-23T20:53:32.812Z,12.93
2022-09-23T20:56:02.018Z,12.48
2022-09-23T20:58:36.610Z,12.10
2022-09-23T21:01:12.041Z,11.76
2022-09-23T21:03:44.083Z,11.79
2022-09-23T21:06:14.785Z,13.06
2022-09-23T21:08:46.675Z,14.06
2022-09-23T21:11:18.203Z,14.25
2022-09-23T21:13:48.743Z,13.61
2022-09-23T21:16:21.626Z,12.89
2022-09-23T21:18:52.365Z,12.36
2022-09-23T21:21:22.686Z,12.15
2022-09-23T21:23:51.392Z,13.12
2022-09-23T21:26:25.302Z,14.48
2022-09-23T21:29:01.258Z,15.08
2022-09-23T21:31:38.939Z,14.32
2022-09-23T21:34:11.471Z,13.43
2022-09-23T21:36:43.739Z,12.79
2022-09-23T21:39:15.471Z,12.28
2022-09-23T21:41:47.171Z,11.83
2022-09-23T21:44:17.723Z,11.46
2022-09-23T21:46:48.693Z,11.31
2022-09-23T21:49:17.492Z,12.03
2022-09-23T21:51:45.987Z,12.81
2022-09-23T21:54:17.029Z,13.48
2022-09-23T21:56:45.610Z,14.14
2022-09-23T21:59:14.087Z,14.58
2022-09-23T22:01:45.572Z,13.91
2022-09-23T22:04:18.388Z,13.04
2022-09-23T22:06:49.159Z,12.37
2022-09-23T22:09:20.324Z,11.86
2022-09-23T22:12:09.983Z,11.43
2022-09-23T22:14:39.818Z,11.31
2022-09-23T22:17:10.742Z,12.10
2022-09-23T22:19:45.970Z,13.18
2022-09-23T22:22:17.986Z,14.05
2022-09-23T22:24:48.429Z,14.44
2022-09-23T22:27:19.250Z,13.71
2022-09-23T22:30:06.575Z,12.84
2022-09-23T22:32:41.706Z,12.11
2022-09-23T22:35:20.299Z,11.61
2022-09-23T22:37:50.035Z,11.19
2022-09-23T22:40:18.852Z,11.14
2022-09-23T22:42:49.975Z,12.39
2022-09-23T22:45:18.589Z,13.75
2022-09-23T22:47:46.945Z,14.23
2022-09-23T22:50:18.600Z,13.52
2022-09-23T22:52:47.697Z,12.65
2022-09-23T22:55:16.110Z,11.99
2022-09-23T22:57:44.255Z,11.49
2022-09-23T23:00:12.937Z,11.08
2022-09-23T23:02:42.627Z,10.73
2022-09-23T23:05:11.670Z,10.67
2022-09-23T23:07:40.748Z,11.73
2022-09-23T23:10:10.509Z,12.87
2022-09-23T23:12:39.779Z,13.66
2022-09-23T23:15:11.959Z,13.89
2022-09-23T23:17:41.829Z,13.10
2022-09-23T23:20:10.854Z,12.26
2022-09-23T23:22:45.506Z,11.63
2022-09-23T23:25:14.068Z,11.12
2022-09-23T23:27:42.659Z,10.89
2022-09-23T23:30:11.656Z,11.59
2022-09-23T23:32:40.392Z,12.44
2022-09-23T23:35:12.025Z,13.12
2022-09-23T23:37:41.917Z,13.29
2022-09-23T23:40:10.934Z,12.65
2022-09-23T23:42:39.414Z,11.90
2022-09-23T23:45:08.568Z,11.32
2022-09-23T23:47:37.667Z,10.85
2022-09-23T23:50:06.592Z,10.47
2022-09-23T23:52:35.075Z,10.34
2022-09-23T23:55:03.865Z,11.05
2022-09-23T23:57:35.010Z,11.90
